sensor_id;sensor_type;location;lat;lon;timestamp;P1;durP1;ratioP1;P2;durP2;ratioP2
68995;SDS011;56056;48.990;12.146;2023-09-30T00:02:11;1149.88;;;999.90;;
68995;SDS011;56056;48.990;12.146;2023-09-30T00:04:37;1147.80;;;999.90;;
68995;SDS011;56056;48.990;12.146;2023-09-30T00:07:03;1164.25;;;999.90;;
68995;SDS011;56056;48.990;12.146;2023-09-30T00:09:31;1173.18;;;999.90;;
68995;SDS011;56056;48.990;12.146;2023-09-30T00:11:57;1288.97;;;999.90;;
68995;SDS011;56056;48.990;12.146;2023-09-30T00:14:24;1133.53;;;999.90;;
68995;SDS011;56056;48.990;12.146;2023-09-30T00:16:50;1193.95;;;999.90;;
68995;SDS011;56056;48.990;12.146;2023-09-30T00:19:16;1274.88;;;999.90;;
68995;SDS011;56056;48.990;12.146;2023-09-30T00:21:42;1253.95;;;999.90;;
68995;SDS011;56056;48.990;12.146;2023-09-30T00:24:08;1248.60;;;999.90;;
68995;SDS011;56056;48.990;12.146;2023-09-30T00:26:35;1306.38;;;999.90;;
68995;SDS011;56056;48.990;12.146;2023-09-30T00:29:01;1253.68;;;999.90;;
68995;SDS011;56056;48.990;12.146;2023-09-30T00:31:29;1270.47;;;999.90;;
68995;SDS011;56056;48.990;12.146;2023-09-30T00:33:55;1292.55;;;999.90;;
68995;SDS011;56056;48.990;12.146;2023-09-30T00:36:21;1260.15;;;999.90;;
68995;SDS011;56056;48.990;12.146;2023-09-30T00:38:47;1262.30;;;999.90;;
68995;SDS011;56056;48.990;12.146;2023-09-30T00:41:13;1310.65;;;999.90;;
68995;SDS011;56056;48.990;12.146;2023-09-30T00:43:40;1308.63;;;999.90;;
68995;SDS011;56056;48.990;12.146;2023-09-30T00:46:06;1333.38;;;999.90;;
68995;SDS011;56056;48.990;12.146;2023-09-30T00:48:43;1248.85;;;999.90;;
68995;SDS011;56056;48.990;12.146;2023-09-30T00:51:09;1296.70;;;999.90;;
68995;SDS011;56056;48.990;12.146;2023-09-30T00:53:35;1328.97;;;999.90;;
68995;SDS011;56056;48.990;12.146;2023-09-30T00:56:01;1363.70;;;999.90;;
68995;SDS011;56056;48.990;12.146;2023-09-30T00:58:28;1358.07;;;999.90;;
68995;SDS011;56056;48.990;12.146;2023-09-30T01:00:57;1390.10;;;999.90;;
68995;SDS011;56056;48.990;12.146;2023-09-30T01:03:24;1361.40;;;999.90;;
68995;SDS011;56056;48.990;12.146;2023-09-30T01:05:50;1416.82;;;999.90;;
68995;SDS011;56056;48.990;12.146;2023-09-30T01:08:16;1432.93;;;999.90;;
68995;SDS011;56056;48.990;12.146;2023-09-30T01:10:43;1426.38;;;999.90;;
68995;SDS011;56056;48.990;12.146;2023-09-30T01:13:09;1485.68;;;999.90;;
68995;SDS011;56056;48.990;12.146;2023-09-30T01:15:35;1564.55;;;999.90;;
68995;SDS011;56056;48.990;12.146;2023-09-30T01:18:03;1516.63;;;999.90;;
68995;SDS011;56056;48.990;12.146;2023-09-30T01:20:30;1592.60;;;999.90;;
68995;SDS011;56056;48.990;12.146;2023-09-30T01:22:58;1537.15;;;999.90;;
68995;SDS011;56056;48.990;12.146;2023-09-30T01:25:24;1542.75;;;999.90;;
68995;SDS011;56056;48.990;12.146;2023-09-30T01:27:50;1509.80;;;999.90;;
68995;SDS011;56056;48.990;12.146;2023-09-30T01:30:16;1496.78;;;999.90;;
68995;SDS011;56056;48.990;12.146;2023-09-30T01:32:43;1635.20;;;999.90;;
68995;SDS011;56056;48.990;12.146;2023-09-30T01:35:09;1548.80;;;999.90;;
68995;SDS011;56056;48.990;12.146;2023-09-30T01:37:35;1584.40;;;999.90;;
68995;SDS011;56056;48.990;12.146;2023-09-30T01:40:02;1561.63;;;999.90;;
68995;SDS011;56056;48.990;12.146;2023-09-30T01:42:29;1560.80;;;999.90;;
68995;SDS011;56056;48.990;12.146;2023-09-30T01:44:55;1627.53;;;999.90;;
68995;SDS011;56056;48.990;12.146;2023-09-30T01:47:22;1604.97;;;999.90;;
68995;SDS011;56056;48.990;12.146;2023-09-30T01:49:48;1751.93;;;999.90;;
68995;SDS011;56056;48.990;12.146;2023-09-30T01:52:14;1628.63;;;999.90;;
68995;SDS011;56056;48.990;12.146;2023-09-30T01:54:40;1590.20;;;999.90;;
68995;SDS011;56056;48.990;12.146;2023-09-30T01:57:07;1706.07;;;999.90;;
68995;SDS011;56056;48.990;12.146;2023-09-30T01:59:33;1549.28;;;999.90;;
68995;SDS011;56056;48.990;12.146;2023-09-30T02:01:59;1664.65;;;999.90;;
68995;SDS011;56056;48.990;12.146;2023-09-30T02:04:27;1579.93;;;999.90;;
68995;SDS011;56056;48.990;12.146;2023-09-30T02:06:54;1649.53;;;999.90;;
68995;SDS011;56056;48.990;12.146;2023-09-30T02:09:20;1604.50;;;999.90;;
68995;SDS011;56056;48.990;12.146;2023-09-30T02:11:46;1612.78;;;999.90;;
68995;SDS011;56056;48.990;12.146;2023-09-30T02:14:13;1662.53;;;999.90;;
68995;SDS011;56056;48.990;12.146;2023-09-30T02:16:39;1584.68;;;999.90;;
68995;SDS011;56056;48.990;12.146;2023-09-30T02:19:05;1576.10;;;999.90;;
68995;SDS011;56056;48.990;12.146;2023-09-30T02:21:31;1639.93;;;999.90;;
68995;SDS011;56056;48.990;12.146;2023-09-30T02:23:57;1609.80;;;999.90;;
68995;SDS011;56056;48.990;12.146;2023-09-30T02:26:23;1640.70;;;999.90;;
68995;SDS011;56056;48.990;12.146;2023-09-30T02:28:50;1656.45;;;999.90;;
68995;SDS011;56056;48.990;12.146;2023-09-30T02:31:18;1618.95;;;999.90;;
68995;SDS011;56056;48.990;12.146;2023-09-30T02:33:44;1674.10;;;999.90;;
68995;SDS011;56056;48.990;12.146;2023-09-30T02:36:10;1671.10;;;999.90;;
68995;SDS011;56056;48.990;12.146;2023-09-30T02:38:37;1722.15;;;999.90;;
68995;SDS011;56056;48.990;12.146;2023-09-30T02:41:03;1733.00;;;999.90;;
68995;SDS011;56056;48.990;12.146;2023-09-30T02:43:29;1636.57;;;999.90;;
68995;SDS011;56056;48.990;12.146;2023-09-30T02:45:55;1696.85;;;999.90;;
68995;SDS011;56056;48.990;12.146;2023-09-30T02:48:22;1591.50;;;999.90;;
68995;SDS011;56056;48.990;12.146;2023-09-30T02:50:48;1520.82;;;999.90;;
68995;SDS011;56056;48.990;12.146;2023-09-30T02:53:14;1517.50;;;999.90;;
68995;SDS011;56056;48.990;12.146;2023-09-30T02:55:40;1522.55;;;999.90;;
68995;SDS011;56056;48.990;12.146;2023-09-30T02:58:06;1508.35;;;999.90;;
68995;SDS011;56056;48.990;12.146;2023-09-30T03:00:35;1453.03;;;999.90;;
68995;SDS011;56056;48.990;12.146;2023-09-30T03:03:03;1532.40;;;999.90;;
68995;SDS011;56056;48.990;12.146;2023-09-30T03:05:30;1432.18;;;999.90;;
68995;SDS011;56056;48.990;12.146;2023-09-30T03:07:58;1457.35;;;999.90;;
68995;SDS011;56056;48.990;12.146;2023-09-30T03:10:25;1537.38;;;999.90;;
68995;SDS011;56056;48.990;12.146;2023-09-30T03:12:52;1542.95;;;999.90;;
68995;SDS011;56056;48.990;12.146;2023-09-30T03:15:18;1526.50;;;999.90;;
68995;SDS011;56056;48.990;12.146;2023-09-30T03:17:44;1459.25;;;999.90;;
68995;SDS011;56056;48.990;12.146;2023-09-30T03:20:10;1429.13;;;999.90;;
68995;SDS011;56056;48.990;12.146;2023-09-30T03:22:40;1427.70;;;999.90;;
68995;SDS011;56056;48.990;12.146;2023-09-30T03:25:12;1495.88;;;999.90;;
68995;SDS011;56056;48.990;12.146;2023-09-30T03:27:41;1573.30;;;999.90;;
68995;SDS011;56056;48.990;12.146;2023-09-30T03:30:07;1595.60;;;999.90;;
68995;SDS011;56056;48.990;12.146;2023-09-30T03:32:38;1536.13;;;999.90;;
68995;SDS011;56056;48.990;12.146;2023-09-30T03:35:04;1547.28;;;999.90;;
68995;SDS011;56056;48.990;12.146;2023-09-30T03:37:31;1509.38;;;999.90;;
68995;SDS011;56056;48.990;12.146;2023-09-30T03:39:58;1547.45;;;999.90;;
68995;SDS011;56056;48.990;12.146;2023-09-30T03:42:25;1487.50;;;999.90;;
68995;SDS011;56056;48.990;12.146;2023-09-30T03:44:53;1497.38;;;999.90;;
68995;SDS011;56056;48.990;12.146;2023-09-30T03:47:19;1410.72;;;999.90;;
68995;SDS011;56056;48.990;12.146;2023-09-30T03:49:46;1453.20;;;999.90;;
68995;SDS011;56056;48.990;12.146;2023-09-30T03:52:13;1405.65;;;999.90;;
68995;SDS011;56056;48.990;12.146;2023-09-30T03:54:39;1382.03;;;999.90;;
68995;SDS011;56056;48.990;12.146;2023-09-30T03:57:08;1460.53;;;999.90;;
68995;SDS011;56056;48.990;12.146;2023-09-30T03:59:33;1412.28;;;999.90;;
68995;SDS011;56056;48.990;12.146;2023-09-30T04:01:59;1421.70;;;999.90;;
68995;SDS011;56056;48.990;12.146;2023-09-30T04:04:26;1386.72;;;999.90;;
68995;SDS011;56056;48.990;12.146;2023-09-30T04:06:52;1448.13;;;999.90;;
68995;SDS011;56056;48.990;12.146;2023-09-30T04:09:17;1384.72;;;999.90;;
68995;SDS011;56056;48.990;12.146;2023-09-30T04:11:44;1347.10;;;999.90;;
68995;SDS011;56056;48.990;12.146;2023-09-30T04:14:11;1553.68;;;999.90;;
68995;SDS011;56056;48.990;12.146;2023-09-30T04:16:37;1471.47;;;999.90;;
68995;SDS011;56056;48.990;12.146;2023-09-30T04:19:03;1609.60;;;999.90;;
68995;SDS011;56056;48.990;12.146;2023-09-30T04:21:29;1514.32;;;999.90;;
68995;SDS011;56056;48.990;12.146;2023-09-30T04:23:59;1519.20;;;999.90;;
68995;SDS011;56056;48.990;12.146;2023-09-30T04:26:25;1523.10;;;999.90;;
68995;SDS011;56056;48.990;12.146;2023-09-30T04:28:51;1552.40;;;999.90;;
68995;SDS011;56056;48.990;12.146;2023-09-30T04:31:19;1520.40;;;999.90;;
68995;SDS011;56056;48.990;12.146;2023-09-30T04:33:48;1515.45;;;999.90;;
68995;SDS011;56056;48.990;12.146;2023-09-30T04:36:18;1561.35;;;999.90;;
68995;SDS011;56056;48.990;12.146;2023-09-30T04:38:44;1615.85;;;999.90;;
68995;SDS011;56056;48.990;12.146;2023-09-30T04:41:10;1616.03;;;999.90;;
68995;SDS011;56056;48.990;12.146;2023-09-30T04:43:36;1652.57;;;999.90;;
68995;SDS011;56056;48.990;12.146;2023-09-30T04:46:05;1576.00;;;999.90;;
68995;SDS011;56056;48.990;12.146;2023-09-30T04:48:34;1501.57;;;999.90;;
68995;SDS011;56056;48.990;12.146;2023-09-30T04:51:00;1528.38;;;999.90;;
68995;SDS011;56056;48.990;12.146;2023-09-30T04:53:29;1586.65;;;999.90;;
68995;SDS011;56056;48.990;12.146;2023-09-30T04:55:55;1589.35;;;999.90;;
68995;SDS011;56056;48.990;12.146;2023-09-30T04:58:21;1591.85;;;999.90;;
68995;SDS011;56056;48.990;12.146;2023-09-30T05:00:48;1582.75;;;999.90;;
68995;SDS011;56056;48.990;12.146;2023-09-30T05:03:14;1498.50;;;999.90;;
68995;SDS011;56056;48.990;12.146;2023-09-30T05:05:42;1419.70;;;999.90;;
68995;SDS011;56056;48.990;12.146;2023-09-30T05:08:07;1545.13;;;999.90;;
68995;SDS011;56056;48.990;12.146;2023-09-30T05:10:35;1608.85;;;999.90;;
68995;SDS011;56056;48.990;12.146;2023-09-30T05:13:01;1575.78;;;999.90;;
68995;SDS011;56056;48.990;12.146;2023-09-30T05:15:28;1570.53;;;999.90;;
68995;SDS011;56056;48.990;12.146;2023-09-30T05:17:57;1505.18;;;999.90;;
68995;SDS011;56056;48.990;12.146;2023-09-30T05:20:22;1597.90;;;999.90;;
68995;SDS011;56056;48.990;12.146;2023-09-30T05:22:50;1521.38;;;999.90;;
68995;SDS011;56056;48.990;12.146;2023-09-30T05:25:16;1560.50;;;999.90;;
68995;SDS011;56056;48.990;12.146;2023-09-30T05:27:42;1542.50;;;999.90;;
68995;SDS011;56056;48.990;12.146;2023-09-30T05:30:09;1516.55;;;999.90;;
68995;SDS011;56056;48.990;12.146;2023-09-30T05:32:40;1521.72;;;999.90;;
68995;SDS011;56056;48.990;12.146;2023-09-30T05:35:07;1522.60;;;999.90;;
68995;SDS011;56056;48.990;12.146;2023-09-30T05:37:38;1519.60;;;999.90;;
68995;SDS011;56056;48.990;12.146;2023-09-30T05:40:07;1526.88;;;999.90;;
68995;SDS011;56056;48.990;12.146;2023-09-30T05:42:45;1450.05;;;999.90;;
68995;SDS011;56056;48.990;12.146;2023-09-30T05:45:11;1531.47;;;999.90;;
68995;SDS011;56056;48.990;12.146;2023-09-30T05:47:40;1504.03;;;999.90;;
68995;SDS011;56056;48.990;12.146;2023-09-30T05:50:06;1587.25;;;999.90;;
68995;SDS011;56056;48.990;12.146;2023-09-30T05:52:34;1530.32;;;999.90;;
68995;SDS011;56056;48.990;12.146;2023-09-30T05:55:01;1489.80;;;999.90;;
68995;SDS011;56056;48.990;12.146;2023-09-30T05:57:28;1568.82;;;999.90;;
68995;SDS011;56056;48.990;12.146;2023-09-30T05:59:54;1553.75;;;999.90;;
68995;SDS011;56056;48.990;12.146;2023-09-30T06:02:20;1587.70;;;999.90;;
68995;SDS011;56056;48.990;12.146;2023-09-30T06:04:46;1646.40;;;999.90;;
68995;SDS011;56056;48.990;12.146;2023-09-30T06:07:12;1629.22;;;999.90;;
68995;SDS011;56056;48.990;12.146;2023-09-30T06:09:38;1562.18;;;999.90;;
68995;SDS011;56056;48.990;12.146;2023-09-30T06:12:04;1534.43;;;999.90;;
68995;SDS011;56056;48.990;12.146;2023-09-30T06:14:32;1503.97;;;999.90;;
68995;SDS011;56056;48.990;12.146;2023-09-30T06:16:59;1491.68;;;999.90;;
68995;SDS011;56056;48.990;12.146;2023-09-30T06:19:25;1518.75;;;999.90;;
68995;SDS011;56056;48.990;12.146;2023-09-30T06:21:51;1488.05;;;999.90;;
68995;SDS011;56056;48.990;12.146;2023-09-30T06:24:17;1535.22;;;999.90;;
68995;SDS011;56056;48.990;12.146;2023-09-30T06:26:46;1340.82;;;999.90;;
68995;SDS011;56056;48.990;12.146;2023-09-30T06:29:13;1528.85;;;999.90;;
68995;SDS011;56056;48.990;12.146;2023-09-30T06:31:41;1564.97;;;999.90;;
68995;SDS011;56056;48.990;12.146;2023-09-30T06:34:07;1518.93;;;999.90;;
68995;SDS011;56056;48.990;12.146;2023-09-30T06:36:36;1574.35;;;999.90;;
68995;SDS011;56056;48.990;12.146;2023-09-30T06:39:05;1534.03;;;999.90;;
68995;SDS011;56056;48.990;12.146;2023-09-30T06:41:31;1532.55;;;999.90;;
68995;SDS011;56056;48.990;12.146;2023-09-30T06:43:58;1537.65;;;999.90;;
68995;SDS011;56056;48.990;12.146;2023-09-30T06:46:24;1447.07;;;999.90;;
68995;SDS011;56056;48.990;12.146;2023-09-30T06:48:52;1532.50;;;999.90;;
68995;SDS011;56056;48.990;12.146;2023-09-30T06:51:18;1533.28;;;999.90;;
68995;SDS011;56056;48.990;12.146;2023-09-30T06:53:44;1528.43;;;999.90;;
68995;SDS011;56056;48.990;12.146;2023-09-30T06:56:10;1527.95;;;999.90;;
68995;SDS011;56056;48.990;12.146;2023-09-30T06:58:37;1521.47;;;999.90;;
68995;SDS011;56056;48.990;12.146;2023-09-30T07:01:03;1512.43;;;999.90;;
68995;SDS011;56056;48.990;12.146;2023-09-30T07:03:29;1517.68;;;999.90;;
68995;SDS011;56056;48.990;12.146;2023-09-30T07:05:59;1431.25;;;999.90;;
68995;SDS011;56056;48.990;12.146;2023-09-30T07:08:28;1569.07;;;999.90;;
68995;SDS011;56056;48.990;12.146;2023-09-30T07:10:55;1427.60;;;999.90;;
68995;SDS011;56056;48.990;12.146;2023-09-30T07:13:21;1426.05;;;999.90;;
68995;SDS011;56056;48.990;12.146;2023-09-30T07:15:47;1421.03;;;999.90;;
68995;SDS011;56056;48.990;12.146;2023-09-30T07:18:13;1439.65;;;999.90;;
68995;SDS011;56056;48.990;12.146;2023-09-30T07:20:39;1446.18;;;999.90;;
68995;SDS011;56056;48.990;12.146;2023-09-30T07:23:06;1327.22;;;999.90;;
68995;SDS011;56056;48.990;12.146;2023-09-30T07:25:34;1280.93;;;999.90;;
68995;SDS011;56056;48.990;12.146;2023-09-30T07:28:00;1502.28;;;999.90;;
68995;SDS011;56056;48.990;12.146;2023-09-30T07:30:26;1263.70;;;999.90;;
68995;SDS011;56056;48.990;12.146;2023-09-30T07:32:52;1281.25;;;999.90;;
68995;SDS011;56056;48.990;12.146;2023-09-30T07:35:18;1323.97;;;999.90;;
68995;SDS011;56056;48.990;12.146;2023-09-30T07:37:44;1211.22;;;999.90;;
68995;SDS011;56056;48.990;12.146;2023-09-30T07:40:11;1187.97;;;999.90;;
68995;SDS011;56056;48.990;12.146;2023-09-30T07:42:38;1199.47;;;999.90;;
68995;SDS011;56056;48.990;12.146;2023-09-30T07:45:04;1220.93;;;999.90;;
68995;SDS011;56056;48.990;12.146;2023-09-30T07:47:31;1103.38;;;996.47;;
68995;SDS011;56056;48.990;12.146;2023-09-30T07:49:58;1245.60;;;999.90;;
68995;SDS011;56056;48.990;12.146;2023-09-30T07:52:25;1177.03;;;999.90;;
68995;SDS011;56056;48.990;12.146;2023-09-30T07:54:51;1291.40;;;999.90;;
68995;SDS011;56056;48.990;12.146;2023-09-30T07:57:18;1263.95;;;999.90;;
68995;SDS011;56056;48.990;12.146;2023-09-30T07:59:45;1242.15;;;999.90;;
68995;SDS011;56056;48.990;12.146;2023-09-30T08:02:11;1441.28;;;999.90;;
68995;SDS011;56056;48.990;12.146;2023-09-30T08:04:37;1586.82;;;999.90;;
68995;SDS011;56056;48.990;12.146;2023-09-30T08:07:03;1484.43;;;999.90;;
68995;SDS011;56056;48.990;12.146;2023-09-30T08:09:28;1295.55;;;999.90;;
68995;SDS011;56056;48.990;12.146;2023-09-30T08:11:54;1570.43;;;999.90;;
68995;SDS011;56056;48.990;12.146;2023-09-30T08:14:22;1481.53;;;999.90;;
68995;SDS011;56056;48.990;12.146;2023-09-30T08:16:48;1448.00;;;999.90;;
68995;SDS011;56056;48.990;12.146;2023-09-30T08:19:14;1526.13;;;999.90;;
68995;SDS011;56056;48.990;12.146;2023-09-30T08:21:40;1289.30;;;999.90;;
68995;SDS011;56056;48.990;12.146;2023-09-30T08:24:06;1359.10;;;999.90;;
68995;SDS011;56056;48.990;12.146;2023-09-30T08:26:33;1400.60;;;999.90;;
68995;SDS011;56056;48.990;12.146;2023-09-30T08:29:00;1299.35;;;999.90;;
68995;SDS011;56056;48.990;12.146;2023-09-30T08:31:28;1220.22;;;999.90;;
68995;SDS011;56056;48.990;12.146;2023-09-30T08:33:54;1221.95;;;999.90;;
68995;SDS011;56056;48.990;12.146;2023-09-30T08:36:19;1423.78;;;999.90;;
68995;SDS011;56056;48.990;12.146;2023-09-30T08:38:46;1222.18;;;999.90;;
68995;SDS011;56056;48.990;12.146;2023-09-30T08:41:12;1196.15;;;999.90;;
68995;SDS011;56056;48.990;12.146;2023-09-30T08:43:55;1191.93;;;999.90;;
68995;SDS011;56056;48.990;12.146;2023-09-30T08:46:24;1250.35;;;999.90;;
68995;SDS011;56056;48.990;12.146;2023-09-30T08:48:52;1278.13;;;999.90;;
68995;SDS011;56056;48.990;12.146;2023-09-30T08:51:18;1428.53;;;999.90;;
68995;SDS011;56056;48.990;12.146;2023-09-30T08:53:44;1225.05;;;999.90;;
68995;SDS011;56056;48.990;12.146;2023-09-30T08:56:11;1171.60;;;999.90;;
68995;SDS011;56056;48.990;12.146;2023-09-30T08:58:41;1198.88;;;999.90;;
68995;SDS011;56056;48.990;12.146;2023-09-30T09:01:07;1191.22;;;999.90;;
68995;SDS011;56056;48.990;12.146;2023-09-30T09:03:35;1215.88;;;999.90;;
68995;SDS011;56056;48.990;12.146;2023-09-30T09:06:02;1175.65;;;999.90;;
68995;SDS011;56056;48.990;12.146;2023-09-30T09:08:28;1146.97;;;999.90;;
68995;SDS011;56056;48.990;12.146;2023-09-30T09:10:55;1266.00;;;999.90;;
68995;SDS011;56056;48.990;12.146;2023-09-30T09:13:23;1206.03;;;999.90;;
68995;SDS011;56056;48.990;12.146;2023-09-30T09:15:49;1321.43;;;999.90;;
68995;SDS011;56056;48.990;12.146;2023-09-30T09:18:33;1189.28;;;999.90;;
68995;SDS011;56056;48.990;12.146;2023-09-30T09:21:13;1166.88;;;999.90;;
68995;SDS011;56056;48.990;12.146;2023-09-30T09:23:42;1176.80;;;999.90;;
68995;SDS011;56056;48.990;12.146;2023-09-30T09:26:10;1116.10;;;999.90;;
68995;SDS011;56056;48.990;12.146;2023-09-30T09:28:37;1129.93;;;999.90;;
68995;SDS011;56056;48.990;12.146;2023-09-30T09:33:52;1077.40;;;988.22;;
68995;SDS011;56056;48.990;12.146;2023-09-30T09:36:23;1057.45;;;974.05;;
68995;SDS011;56056;48.990;12.146;2023-09-30T09:39:05;1110.65;;;999.90;;
68995;SDS011;56056;48.990;12.146;2023-09-30T09:41:31;1148.57;;;999.90;;
68995;SDS011;56056;48.990;12.146;2023-09-30T09:43:57;1212.57;;;999.90;;
68995;SDS011;56056;48.990;12.146;2023-09-30T09:46:25;1130.78;;;999.90;;
68995;SDS011;56056;48.990;12.146;2023-09-30T09:48:54;1155.88;;;999.90;;
68995;SDS011;56056;48.990;12.146;2023-09-30T09:51:23;1119.55;;;999.90;;
68995;SDS011;56056;48.990;12.146;2023-09-30T09:53:51;1172.03;;;999.90;;
68995;SDS011;56056;48.990;12.146;2023-09-30T09:56:20;1147.40;;;999.90;;
68995;SDS011;56056;48.990;12.146;2023-09-30T09:58:46;1117.05;;;999.90;;
68995;SDS011;56056;48.990;12.146;2023-09-30T10:01:13;1160.93;;;999.90;;
68995;SDS011;56056;48.990;12.146;2023-09-30T10:03:40;1127.18;;;999.90;;
68995;SDS011;56056;48.990;12.146;2023-09-30T10:06:06;1136.45;;;999.90;;
68995;SDS011;56056;48.990;12.146;2023-09-30T10:08:37;1109.07;;;999.90;;
68995;SDS011;56056;48.990;12.146;2023-09-30T10:11:07;1081.80;;;994.55;;
68995;SDS011;56056;48.990;12.146;2023-09-30T10:13:50;1073.78;;;991.55;;
68995;SDS011;56056;48.990;12.146;2023-09-30T10:19:15;1053.10;;;973.45;;
68995;SDS011;56056;48.990;12.146;2023-09-30T10:24:51;1034.35;;;956.40;;
68995;SDS011;56056;48.990;12.146;2023-09-30T10:27:28;1103.18;;;999.90;;
68995;SDS011;56056;48.990;12.146;2023-09-30T10:30:08;1129.53;;;999.90;;
68995;SDS011;56056;48.990;12.146;2023-09-30T10:35:43;1110.85;;;999.90;;
68995;SDS011;56056;48.990;12.146;2023-09-30T10:41:07;1094.18;;;999.25;;
68995;SDS011;56056;48.990;12.146;2023-09-30T10:43:34;1090.28;;;998.30;;
68995;SDS011;56056;48.990;12.146;2023-09-30T10:46:02;1077.95;;;992.13;;
68995;SDS011;56056;48.990;12.146;2023-09-30T10:48:32;1107.10;;;999.90;;
68995;SDS011;56056;48.990;12.146;2023-09-30T10:51:00;1105.70;;;999.90;;
68995;SDS011;56056;48.990;12.146;2023-09-30T10:53:35;1109.80;;;999.90;;
68995;SDS011;56056;48.990;12.146;2023-09-30T10:56:18;1117.07;;;999.90;;
68995;SDS011;56056;48.990;12.146;2023-09-30T10:58:45;1091.55;;;998.38;;
68995;SDS011;56056;48.990;12.146;2023-09-30T11:01:13;1091.95;;;998.80;;
68995;SDS011;56056;48.990;12.146;2023-09-30T11:03:41;1072.07;;;988.92;;
68995;SDS011;56056;48.990;12.146;2023-09-30T11:06:07;1102.05;;;999.90;;
68995;SDS011;56056;48.990;12.146;2023-09-30T11:08:40;1087.88;;;997.35;;
68995;SDS011;56056;48.990;12.146;2023-09-30T11:11:12;1093.10;;;998.25;;
68995;SDS011;56056;48.990;12.146;2023-09-30T11:13:40;1085.25;;;996.67;;
68995;SDS011;56056;48.990;12.146;2023-09-30T11:16:06;1097.53;;;999.53;;
68995;SDS011;56056;48.990;12.146;2023-09-30T11:18:33;1084.40;;;995.63;;
68995;SDS011;56056;48.990;12.146;2023-09-30T11:21:03;1064.57;;;983.08;;
68995;SDS011;56056;48.990;12.146;2023-09-30T11:23:33;1074.57;;;990.92;;
68995;SDS011;56056;48.990;12.146;2023-09-30T11:26:01;1055.82;;;975.63;;
68995;SDS011;56056;48.990;12.146;2023-09-30T11:28:34;1087.43;;;996.22;;
68995;SDS011;56056;48.990;12.146;2023-09-30T11:31:04;1068.00;;;985.33;;
68995;SDS011;56056;48.990;12.146;2023-09-30T11:33:46;1092.43;;;997.97;;
68995;SDS011;56056;48.990;12.146;2023-09-30T11:36:14;1053.72;;;973.50;;
68995;SDS011;56056;48.990;12.146;2023-09-30T11:38:44;1080.93;;;993.80;;
68995;SDS011;56056;48.990;12.146;2023-09-30T11:41:14;1097.97;;;999.63;;
68995;SDS011;56056;48.990;12.146;2023-09-30T11:43:57;1099.28;;;999.25;;
68995;SDS011;56056;48.990;12.146;2023-09-30T11:46:31;1104.13;;;999.90;;
68995;SDS011;56056;48.990;12.146;2023-09-30T11:48:59;1159.18;;;999.90;;
68995;SDS011;56056;48.990;12.146;2023-09-30T11:51:26;1132.95;;;999.90;;
68995;SDS011;56056;48.990;12.146;2023-09-30T11:53:53;1096.68;;;998.53;;
68995;SDS011;56056;48.990;12.146;2023-09-30T11:56:20;1072.03;;;988.33;;
68995;SDS011;56056;48.990;12.146;2023-09-30T11:58:47;1117.47;;;999.90;;
68995;SDS011;56056;48.990;12.146;2023-09-30T12:01:15;1074.07;;;989.60;;
68995;SDS011;56056;48.990;12.146;2023-09-30T12:03:42;1070.35;;;987.50;;
68995;SDS011;56056;48.990;12.146;2023-09-30T12:06:08;1061.03;;;980.60;;
68995;SDS011;56056;48.990;12.146;2023-09-30T12:08:38;1061.53;;;981.03;;
68995;SDS011;56056;48.990;12.146;2023-09-30T12:11:04;1092.13;;;997.80;;
68995;SDS011;56056;48.990;12.146;2023-09-30T12:13:30;1059.43;;;978.30;;
68995;SDS011;56056;48.990;12.146;2023-09-30T12:15:56;1066.10;;;982.17;;
68995;SDS011;56056;48.990;12.146;2023-09-30T12:18:22;1031.65;;;953.70;;
68995;SDS011;56056;48.990;12.146;2023-09-30T12:20:50;1040.70;;;962.97;;
68995;SDS011;56056;48.990;12.146;2023-09-30T12:23:19;1039.93;;;963.00;;
68995;SDS011;56056;48.990;12.146;2023-09-30T12:25:45;1051.38;;;972.90;;
68995;SDS011;56056;48.990;12.146;2023-09-30T12:28:12;1053.07;;;973.67;;
68995;SDS011;56056;48.990;12.146;2023-09-30T12:30:42;1053.78;;;973.70;;
68995;SDS011;56056;48.990;12.146;2023-09-30T12:33:08;1053.18;;;972.17;;
68995;SDS011;56056;48.990;12.146;2023-09-30T12:35:35;1047.07;;;967.10;;
68995;SDS011;56056;48.990;12.146;2023-09-30T12:38:03;1050.63;;;970.53;;
68995;SDS011;56056;48.990;12.146;2023-09-30T12:40:29;1049.32;;;968.80;;
68995;SDS011;56056;48.990;12.146;2023-09-30T12:42:55;1065.65;;;984.63;;
68995;SDS011;56056;48.990;12.146;2023-09-30T12:45:21;1080.20;;;994.83;;
68995;SDS011;56056;48.990;12.146;2023-09-30T12:47:46;1075.25;;;990.20;;
68995;SDS011;56056;48.990;12.146;2023-09-30T12:50:13;1089.72;;;997.78;;
68995;SDS011;56056;48.990;12.146;2023-09-30T12:52:39;1092.50;;;998.03;;
68995;SDS011;56056;48.990;12.146;2023-09-30T12:55:06;1107.45;;;999.90;;
68995;SDS011;56056;48.990;12.146;2023-09-30T12:57:33;1122.55;;;999.90;;
68995;SDS011;56056;48.990;12.146;2023-09-30T12:59:59;1128.00;;;999.90;;
68995;SDS011;56056;48.990;12.146;2023-09-30T13:02:25;1129.32;;;999.90;;
68995;SDS011;56056;48.990;12.146;2023-09-30T13:04:51;1123.82;;;999.90;;
68995;SDS011;56056;48.990;12.146;2023-09-30T13:07:19;1093.43;;;998.70;;
68995;SDS011;56056;48.990;12.146;2023-09-30T13:09:45;1065.75;;;984.22;;
68995;SDS011;56056;48.990;12.146;2023-09-30T13:12:12;1075.93;;;990.80;;
68995;SDS011;56056;48.990;12.146;2023-09-30T13:14:38;1055.43;;;973.40;;
68995;SDS011;56056;48.990;12.146;2023-09-30T13:17:04;1070.90;;;987.45;;
68995;SDS011;56056;48.990;12.146;2023-09-30T13:19:30;1060.47;;;979.63;;
68995;SDS011;56056;48.990;12.146;2023-09-30T13:21:58;1070.53;;;989.17;;
68995;SDS011;56056;48.990;12.146;2023-09-30T13:24:23;1059.97;;;978.03;;
68995;SDS011;56056;48.990;12.146;2023-09-30T13:26:49;1070.43;;;987.17;;
68995;SDS011;56056;48.990;12.146;2023-09-30T13:29:18;1086.97;;;995.33;;
68995;SDS011;56056;48.990;12.146;2023-09-30T13:31:44;1079.72;;;994.20;;
68995;SDS011;56056;48.990;12.146;2023-09-30T13:34:10;1065.38;;;984.80;;
68995;SDS011;56056;48.990;12.146;2023-09-30T13:36:40;1044.75;;;967.42;;
68995;SDS011;56056;48.990;12.146;2023-09-30T13:39:06;1048.13;;;969.53;;
68995;SDS011;56056;48.990;12.146;2023-09-30T13:41:33;1053.63;;;973.28;;
68995;SDS011;56056;48.990;12.146;2023-09-30T13:44:00;1053.15;;;973.83;;
68995;SDS011;56056;48.990;12.146;2023-09-30T13:46:27;1063.50;;;981.83;;
68995;SDS011;56056;48.990;12.146;2023-09-30T13:48:54;1054.38;;;973.08;;
68995;SDS011;56056;48.990;12.146;2023-09-30T13:51:20;1066.38;;;984.13;;